Time;durP1;ratioP1;P1;durP2;ratioP2;P2;SDS_P1;SDS_P2;PMS_P1;PMS_P2;Temp;Humidity;BMP_temperature;BMP_pressure;BME280_temperature;BME280_humidity;BME280_pressure;Samples;Min_cycle;Max_cycle;Signal;HPM_P1;HPM_P2
2021/11/14 00:01:20;;;;;;;5.20;3.58;;;8.80;99.90;;;;;;5069976;28;20880;-58
2021/11/14 00:03:49;;;;;;;5.17;3.60;;;8.70;99.90;;;;;;5068384;28;20430;-59
2021/11/14 00:06:20;;;;;;;4.45;2.92;;;8.80;99.90;;;;;;5070367;28;20422;-58
2021/11/14 00:08:47;;;;;;;4.27;3.10;;;8.80;99.90;;;;;;5070094;28;20751;-58
2021/11/14 00:11:16;;;;;;;5.68;3.42;;;8.90;99.90;;;;;;5068990;28;20736;-58
2021/11/14 00:13:45;;;;;;;4.82;3.63;;;8.80;99.90;;;;;;5068588;28;20463;-58
2021/11/14 00:16:13;;;;;;;4.10;3.43;;;8.80;99.90;;;;;;5068750;28;20808;-58
2021/11/14 00:18:41;;;;;;;6.30;3.08;;;8.90;99.90;;;;;;5068819;28;20436;-60
2021/11/14 00:21:12;;;;;;;5.15;3.20;;;8.80;99.90;;;;;;5069752;28;20869;-58
2021/11/14 00:23:39;;;;;;;5.88;3.80;;;8.80;99.90;;;;;;5070644;28;20466;-57
2021/11/14 00:26:07;;;;;;;5.60;4.00;;;8.80;99.90;;;;;;5069812;28;20506;-58
2021/11/14 00:28:35;;;;;;;4.90;3.33;;;8.80;99.90;;;;;;5070868;28;20447;-58
2021/11/14 00:31:04;;;;;;;5.63;3.85;;;8.70;99.90;;;;;;5070986;28;20480;-57
2021/11/14 00:33:31;;;;;;;5.82;4.30;;;8.70;99.90;;;;;;5070435;28;20416;-59
2021/11/14 00:35:59;;;;;;;5.53;3.43;;;8.70;99.90;;;;;;5070101;28;20470;-56
2021/11/14 00:38:28;;;;;;;4.75;3.38;;;8.60;99.90;;;;;;5070663;28;20628;-58
2021/11/14 00:40:54;;;;;;;4.05;3.20;;;8.50;99.90;;;;;;5071523;28;20452;-58
2021/11/14 00:43:22;;;;;;;5.72;3.50;;;8.50;99.90;;;;;;5071380;28;20502;-57
2021/11/14 00:45:49;;;;;;;5.13;3.30;;;8.50;99.90;;;;;;5071592;28;20419;-58
2021/11/14 00:48:19;;;;;;;6.23;4.20;;;8.50;99.90;;;;;;5070987;28;20502;-58
2021/11/14 00:50:47;;;;;;;6.25;3.75;;;8.40;99.90;;;;;;5070847;28;20484;-58
2021/11/14 00:53:17;;;;;;;5.93;4.10;;;8.40;99.90;;;;;;5071047;28;20784;-58
2021/11/14 00:55:47;;;;;;;6.47;4.10;;;8.40;99.90;;;;;;5070679;28;20838;-59
2021/11/14 00:58:15;;;;;;;6.18;4.55;;;8.50;99.90;;;;;;5070037;28;20877;-58
2021/11/14 01:00:42;;;;;;;7.80;4.00;;;8.40;99.90;;;;;;5070686;27;20463;-59
2021/11/14 01:03:09;;;;;;;6.90;5.15;;;8.50;99.90;;;;;;5070441;28;20514;-59
2021/11/14 01:05:41;;;;;;;6.72;5.55;;;8.50;99.90;;;;;;5070185;28;20428;-59
2021/11/14 01:08:09;;;;;;;7.93;5.70;;;8.40;99.90;;;;;;5070057;28;20762;-59
2021/11/14 01:10:39;;;;;;;6.63;5.38;;;8.40;99.90;;;;;;5070517;28;20455;-58
2021/11/14 01:13:08;;;;;;;8.10;5.88;;;8.40;99.90;;;;;;5070908;28;20518;-58
2021/11/14 01:15:36;;;;;;;8.05;5.53;;;8.40;99.90;;;;;;5070523;28;20434;-58
2021/11/14 01:18:04;;;;;;;6.90;4.82;;;8.40;99.90;;;;;;5069794;28;20662;-58
2021/11/14 01:20:33;;;;;;;8.43;6.23;;;8.40;99.90;;;;;;5070460;28;20434;-58
2021/11/14 01:23:02;;;;;;;7.40;5.78;;;8.40;99.90;;;;;;5069867;28;20475;-58
2021/11/14 01:25:29;;;;;;;6.88;5.38;;;8.40;99.90;;;;;;5069300;28;20471;-57
2021/11/14 01:27:56;;;;;;;7.30;5.90;;;8.40;99.90;;;;;;5069475;28;20506;-58
2021/11/14 01:30:27;;;;;;;9.05;5.95;;;8.30;99.90;;;;;;5069534;28;20507;-57
2021/11/14 01:32:56;;;;;;;7.97;6.28;;;8.30;99.90;;;;;;5069092;28;20522;-58
2021/11/14 01:35:23;;;;;;;8.38;7.32;;;8.30;99.90;;;;;;5067360;28;20499;-57
2021/11/14 01:37:52;;;;;;;8.32;6.25;;;8.20;99.90;;;;;;5067385;28;20751;-58
2021/11/14 01:40:22;;;;;;;9.75;7.97;;;8.20;99.90;;;;;;5068555;28;20731;-58
2021/11/14 01:42:49;;;;;;;9.65;7.80;;;8.20;99.90;;;;;;5068161;28;20507;-56
2021/11/14 01:45:17;;;;;;;12.07;8.55;;;8.10;99.90;;;;;;5068638;28;20506;-58
2021/11/14 01:47:45;;;;;;;10.73;7.63;;;8.10;99.90;;;;;;5069180;28;20423;-58
2021/11/14 01:50:14;;;;;;;10.70;8.20;;;8.10;99.90;;;;;;5070254;28;20526;-58
2021/11/14 01:52:43;;;;;;;10.85;8.70;;;8.10;99.90;;;;;;5070565;28;20508;-58
2021/11/14 01:55:12;;;;;;;10.70;7.30;;;8.10;99.90;;;;;;5070781;28;20772;-58
2021/11/14 01:57:39;;;;;;;10.83;8.00;;;8.10;99.90;;;;;;5070575;28;20875;-59
2021/11/14 02:00:09;;;;;;;9.48;7.18;;;8.10;99.90;;;;;;5070210;28;20554;-59
2021/11/14 02:02:36;;;;;;;9.45;7.30;;;8.20;99.90;;;;;;5070340;28;20483;-58
2021/11/14 02:05:08;;;;;;;9.60;7.45;;;8.20;99.90;;;;;;5070899;28;20427;-59
2021/11/14 02:07:36;;;;;;;11.77;8.00;;;8.20;99.90;;;;;;5070765;28;20498;-58
2021/11/14 02:10:04;;;;;;;9.93;7.88;;;8.20;99.90;;;;;;5069697;28;20885;-58
2021/11/14 02:12:31;;;;;;;8.10;6.88;;;8.10;99.90;;;;;;5070156;28;20715;-58
2021/11/14 02:14:58;;;;;;;8.68;7.07;;;8.20;99.90;;;;;;5070455;28;20908;-57
2021/11/14 02:17:25;;;;;;;8.88;6.65;;;8.20;99.90;;;;;;5071285;28;20420;-58
2021/11/14 02:19:54;;;;;;;9.23;6.63;;;8.20;99.90;;;;;;5071000;28;20455;-57
2021/11/14 02:22:21;;;;;;;7.78;6.20;;;8.20;99.90;;;;;;5070706;28;20506;-59
2021/11/14 02:24:48;;;;;;;8.35;6.70;;;8.20;99.90;;;;;;5071422;28;20530;-59
2021/11/14 02:27:16;;;;;;;8.38;6.80;;;8.30;99.90;;;;;;5071759;28;20447;-59
2021/11/14 02:29:43;;;;;;;6.28;5.15;;;8.30;99.90;;;;;;5073743;28;20541;-58
2021/11/14 02:32:11;;;;;;;8.32;6.95;;;8.30;99.90;;;;;;5073650;28;20431;-59
2021/11/14 02:34:39;;;;;;;9.07;6.72;;;8.40;99.90;;;;;;5073654;28;20480;-59
2021/11/14 02:37:08;;;;;;;9.68;7.57;;;8.30;99.90;;;;;;5073782;28;20463;-58
2021/11/14 02:39:35;;;;;;;6.40;5.45;;;8.30;99.90;;;;;;5073691;28;20530;-59
2021/11/14 02:42:03;;;;;;;7.93;6.30;;;8.40;99.90;;;;;;5073772;28;20416;-59
2021/11/14 02:44:30;;;;;;;8.13;6.60;;;8.40;99.90;;;;;;5074413;28;20434;-57
2021/11/14 02:46:57;;;;;;;7.85;6.32;;;8.50;99.90;;;;;;5073893;28;20416;-59
2021/11/14 02:49:25;;;;;;;9.90;7.35;;;8.50;99.90;;;;;;5072906;28;20890;-59
2021/11/14 02:51:52;;;;;;;8.45;7.00;;;8.50;99.90;;;;;;5073636;28;20646;-59
2021/11/14 02:54:21;;;;;;;9.90;7.35;;;8.50;99.90;;;;;;5073492;28;20463;-59
2021/11/14 02:56:48;;;;;;;7.65;6.85;;;8.50;99.90;;;;;;5073329;28;20514;-59
2021/11/14 02:59:15;;;;;;;8.13;6.47;;;8.40;99.90;;;;;;5073325;28;20527;-59
2021/11/14 03:01:45;;;;;;;9.23;7.10;;;8.40;99.90;;;;;;5073329;28;20416;-59
2021/11/14 03:04:14;;;;;;;8.20;7.07;;;8.50;99.90;;;;;;5073496;28;20432;-59
2021/11/14 03:06:42;;;;;;;8.57;6.38;;;8.40;99.90;;;;;;5073707;28;20460;-60
2021/11/14 03:09:09;;;;;;;8.80;6.30;;;8.50;99.90;;;;;;5073313;28;20782;-59
2021/11/14 03:11:38;;;;;;;9.07;6.90;;;8.50;99.90;;;;;;5073067;28;20416;-60
2021/11/14 03:14:05;;;;;;;8.82;6.25;;;8.50;99.90;;;;;;5073888;28;20484;-59
2021/11/14 03:16:33;;;;;;;8.07;6.75;;;8.50;99.90;;;;;;5072558;28;20819;-59
2021/11/14 03:19:00;;;;;;;9.35;6.70;;;8.50;99.90;;;;;;5072476;28;20862;-59
2021/11/14 03:21:29;;;;;;;8.93;7.00;;;8.50;99.90;;;;;;5073287;28;20496;-59
2021/11/14 03:23:57;;;;;;;9.95;7.03;;;8.50;99.90;;;;;;5072938;28;20484;-59
2021/11/14 03:26:25;;;;;;;7.55;6.57;;;8.50;99.90;;;;;;5071676;28;20420;-59
2021/11/14 03:28:54;;;;;;;7.53;6.15;;;8.50;99.90;;;;;;5072484;27;20500;-59
2021/11/14 03:31:22;;;;;;;7.38;5.50;;;8.50;99.90;;;;;;5071507;28;20462;-59
2021/11/14 03:33:49;;;;;;;9.05;6.15;;;8.60;99.90;;;;;;5071673;28;20954;-59
2021/11/14 03:36:17;;;;;;;9.48;7.10;;;8.70;99.90;;;;;;5071865;28;20494;-59
2021/11/14 03:38:48;;;;;;;7.45;6.13;;;8.80;99.90;;;;;;5071923;28;20428;-58
2021/11/14 03:41:17;;;;;;;8.57;6.53;;;8.80;99.90;;;;;;5072933;28;20479;-59
2021/11/14 03:43:44;;;;;;;8.77;5.82;;;8.70;99.90;;;;;;5072542;28;20519;-59
2021/11/14 03:46:14;;;;;;;10.48;7.50;;;8.60;99.90;;;;;;5071457;28;20496;-59
2021/11/14 03:48:43;;;;;;;9.80;7.78;;;8.60;99.90;;;;;;5071363;28;20460;-62
2021/11/14 03:51:12;;;;;;;11.55;8.57;;;8.60;99.90;;;;;;5072095;28;20508;-59
2021/11/14 03:53:39;;;;;;;9.60;7.82;;;8.50;99.90;;;;;;5071313;28;20934;-58
2021/11/14 03:56:07;;;;;;;11.32;7.68;;;8.50;99.90;;;;;;5072210;28;20466;-59
2021/11/14 03:58:35;;;;;;;11.45;7.90;;;8.50;99.90;;;;;;5071826;28;20472;-59
2021/11/14 04:01:05;;;;;;;9.70;7.15;;;8.50;99.90;;;;;;5070927;28;20519;-59
2021/11/14 04:03:34;;;;;;;9.55;7.55;;;8.50;99.90;;;;;;5070968;28;20419;-59
2021/11/14 04:06:01;;;;;;;10.77;7.20;;;8.50;99.90;;;;;;5071089;28;20760;-59
2021/11/14 04:08:29;;;;;;;9.95;7.80;;;8.60;99.90;;;;;;5071309;28;20434;-57
2021/11/14 04:10:59;;;;;;;8.85;5.80;;;8.60;99.90;;;;;;5070216;28;20815;-59
2021/11/14 04:13:26;;;;;;;9.97;7.30;;;8.60;99.90;;;;;;5070210;27;20471;-57
2021/11/14 04:15:53;;;;;;;8.07;7.28;;;8.60;99.90;;;;;;5071182;28;20446;-58
2021/11/14 04:18:20;;;;;;;8.95;6.85;;;8.60;99.90;;;;;;5070551;28;20519;-56
2021/11/14 04:20:50;;;;;;;10.65;7.85;;;8.60;99.90;;;;;;5071194;28;20428;-58
2021/11/14 04:23:18;;;;;;;9.63;7.60;;;8.60;99.90;;;;;;5070195;28;20416;-59
2021/11/14 04:25:45;;;;;;;8.80;6.25;;;8.60;99.90;;;;;;5070293;28;20819;-58
2021/11/14 04:28:13;;;;;;;10.18;7.60;;;8.60;99.90;;;;;;5069653;28;20498;-58
2021/11/14 04:30:41;;;;;;;8.07;6.53;;;8.50;99.90;;;;;;5070372;28;20428;-58
2021/11/14 04:33:08;;;;;;;10.13;7.05;;;8.40;99.90;;;;;;5070909;28;20526;-58
2021/11/14 04:35:35;;;;;;;9.52;7.13;;;8.40;99.90;;;;;;5070754;28;20492;-57
2021/11/14 04:38:05;;;;;;;11.73;8.73;;;8.40;99.90;;;;;;5071210;28;20893;-57
2021/11/14 04:40:36;;;;;;;9.80;7.22;;;8.30;99.90;;;;;;5072362;28;20427;-58
2021/11/14 04:43:03;;;;;;;10.57;7.57;;;8.30;99.90;;;;;;5072585;27;20415;-58
2021/11/14 04:45:30;;;;;;;10.07;7.47;;;8.40;99.90;;;;;;5072218;28;20787;-58
2021/11/14 04:47:57;;;;;;;10.35;7.13;;;8.40;99.90;;;;;;5071667;28;20459;-58
2021/11/14 04:50:24;;;;;;;10.55;7.80;;;8.40;99.90;;;;;;5071634;28;20506;-58
2021/11/14 04:52:52;;;;;;;8.75;6.80;;;8.40;99.90;;;;;;5071947;28;20463;-58
2021/11/14 04:55:22;;;;;;;8.70;6.97;;;8.40;99.90;;;;;;5071196;28;20523;-58
2021/11/14 04:57:51;;;;;;;7.78;6.47;;;8.40;99.90;;;;;;5071805;28;20443;-58
2021/11/14 05:00:21;;;;;;;10.27;7.70;;;8.40;99.90;;;;;;5071907;28;20435;-58
2021/11/14 05:02:48;;;;;;;9.93;6.80;;;8.40;99.90;;;;;;5071920;28;20727;-58
2021/11/14 05:05:15;;;;;;;10.35;7.22;;;8.40;99.90;;;;;;5072263;28;20470;-58
2021/11/14 05:07:42;;;;;;;9.00;6.37;;;8.30;99.90;;;;;;5072179;28;20506;-56
2021/11/14 05:10:10;;;;;;;10.45;7.38;;;8.30;99.90;;;;;;5072099;28;20810;-57
2021/11/14 05:12:40;;;;;;;8.88;6.85;;;8.30;99.90;;;;;;5071713;28;20438;-57
2021/11/14 05:15:08;;;;;;;8.93;6.63;;;8.40;99.90;;;;;;5071515;28;20473;-59
2021/11/14 05:17:35;;;;;;;8.30;6.18;;;8.40;99.90;;;;;;5070128;28;20490;-57
2021/11/14 05:20:03;;;;;;;8.68;6.70;;;8.40;99.90;;;;;;5069556;28;20456;-58
2021/11/14 05:22:30;;;;;;;7.78;6.40;;;8.40;99.90;;;;;;5069672;28;20895;-58
2021/11/14 05:24:57;;;;;;;8.32;6.60;;;8.40;99.90;;;;;;5069220;28;20885;-59
2021/11/14 05:27:24;;;;;;;8.27;5.72;;;8.40;99.90;;;;;;5069159;28;20494;-59
2021/11/14 05:29:52;;;;;;;9.80;6.75;;;8.40;99.90;;;;;;5068873;28;20534;-58
2021/11/14 05:32:20;;;;;;;7.30;5.30;;;8.50;99.90;;;;;;5069245;28;20523;-58
2021/11/14 05:34:47;;;;;;;9.20;6.25;;;8.50;99.90;;;;;;5070906;28;20506;-62
2021/11/14 05:37:14;;;;;;;8.85;6.80;;;8.70;99.90;;;;;;5070370;28;20580;-58
2021/11/14 05:39:40;;;;;;;6.97;6.28;;;8.80;99.90;;;;;;5070376;28;20754;-57
2021/11/14 05:42:08;;;;;;;8.75;6.65;;;8.70;99.90;;;;;;5071798;28;20507;-56
2021/11/14 05:44:35;;;;;;;10.00;5.83;;;8.70;99.90;;;;;;5071348;28;20568;-58
2021/11/14 05:47:04;;;;;;;6.85;5.40;;;8.70;99.90;;;;;;5071471;28;20814;-58
2021/11/14 05:49:31;;;;;;;8.23;5.88;;;8.70;99.90;;;;;;5071341;28;20798;-58
2021/11/14 05:51:58;;;;;;;9.00;6.07;;;8.70;99.90;;;;;;5071170;28;20815;-58
2021/11/14 05:54:25;;;;;;;7.25;5.90;;;8.70;99.90;;;;;;5070340;28;20518;-58
2021/11/14 05:56:52;;;;;;;8.32;5.30;;;8.70;99.90;;;;;;5070978;28;20511;-58
2021/11/14 05:59:27;;;;;;;6.30;5.03;;;8.80;99.90;;;;;;5070733;28;20428;-58
2021/11/14 06:01:58;;;;;;;8.13;5.10;;;8.90;99.90;;;;;;5071902;27;20506;-56
2021/11/14 06:04:31;;;;;;;6.82;4.68;;;9.00;99.90;;;;;;5073688;28;20500;-57
2021/11/14 06:06:59;;;;;;;6.38;4.70;;;9.00;99.90;;;;;;5073187;28;20420;-58
2021/11/14 06:09:26;;;;;;;7.15;4.47;;;9.00;99.90;;;;;;5073482;28;20854;-55
2021/11/14 06:11:54;;;;;;;7.90;5.30;;;9.10;99.90;;;;;;5074365;28;20416;-57
2021/11/14 06:14:21;;;;;;;8.82;6.20;;;9.00;99.90;;;;;;5074510;28;20447;-57
2021/11/14 06:16:48;;;;;;;8.07;5.78;;;8.80;99.90;;;;;;5074291;28;20419;-58
2021/11/14 06:19:15;;;;;;;10.52;5.78;;;8.60;99.90;;;;;;5073925;28;20428;-58
2021/11/14 06:21:43;;;;;;;7.60;5.00;;;8.50;99.90;;;;;;5073726;28;20467;-56
2021/11/14 06:24:11;;;;;;;6.85;4.72;;;8.50;99.90;;;;;;5073790;28;20850;-58
2021/11/14 06:26:37;;;;;;;6.60;5.00;;;8.60;99.90;;;;;;5073765;28;20506;-58
2021/11/14 06:29:05;;;;;;;6.80;5.43;;;8.70;99.90;;;;;;5073549;28;20452;-58
2021/11/14 06:31:32;;;;;;;6.60;5.00;;;8.70;99.90;;;;;;5071560;28;20471;-58
2021/11/14 06:33:59;;;;;;;8.55;5.50;;;8.80;99.90;;;;;;5071667;28;20546;-58
2021/11/14 06:36:27;;;;;;;9.13;6.60;;;8.80;99.90;;;;;;5072393;28;20443;-56
2021/11/14 06:38:55;;;;;;;8.95;5.95;;;8.80;99.90;;;;;;5072651;28;20464;-57
2021/11/14 06:41:22;;;;;;;8.80;6.43;;;8.70;99.90;;;;;;5073002;28;20459;-58
2021/11/14 06:43:50;;;;;;;10.63;6.80;;;8.60;99.90;;;;;;5072966;28;20423;-58
2021/11/14 06:46:17;;;;;;;7.90;5.80;;;8.50;99.90;;;;;;5074299;28;20451;-58
2021/11/14 06:48:44;;;;;;;7.97;5.53;;;8.50;99.90;;;;;;5073828;28;20507;-58
2021/11/14 06:51:11;;;;;;;7.80;5.88;;;8.60;99.90;;;;;;5073470;28;20506;-58
2021/11/14 06:53:38;;;;;;;7.53;5.30;;;8.70;99.90;;;;;;5073386;28;20842;-57
2021/11/14 06:56:07;;;;;;;9.43;6.28;;;8.70;99.90;;;;;;5073887;28;20435;-58
2021/11/14 06:58:33;;;;;;;9.32;5.95;;;8.80;99.90;;;;;;5072662;28;20495;-58
2021/11/14 07:01:01;;;;;;;9.30;6.28;;;8.80;99.90;;;;;;5072469;28;20455;-58
2021/11/14 07:03:28;;;;;;;7.97;5.47;;;8.80;99.90;;;;;;5071795;28;20491;-58
2021/11/14 07:05:54;;;;;;;8.80;4.78;;;8.90;99.90;;;;;;5072413;28;20420;-58
2021/11/14 07:08:21;;;;;;;6.88;5.30;;;8.80;99.90;;;;;;5072189;28;20461;-57
2021/11/14 07:10:49;;;;;;;8.88;6.15;;;8.90;99.90;;;;;;5071998;28;20919;-57
2021/11/14 07:13:17;;;;;;;7.10;4.57;;;8.90;99.90;;;;;;5071840;28;20843;-56
2021/11/14 07:15:44;;;;;;;6.50;5.17;;;8.90;99.90;;;;;;5071518;28;20451;-58
2021/11/14 07:18:11;;;;;;;8.70;5.88;;;9.00;99.90;;;;;;5073488;28;20427;-58
2021/11/14 07:20:38;;;;;;;9.60;5.32;;;9.00;99.90;;;;;;5073394;28;20867;-57
2021/11/14 07:23:05;;;;;;;7.68;5.15;;;9.00;99.90;;;;;;5072876;28;20449;-58
2021/11/14 07:25:33;;;;;;;7.43;5.20;;;9.00;99.90;;;;;;5072357;28;20443;-59
2021/11/14 07:28:00;;;;;;;9.07;6.00;;;9.00;99.90;;;;;;5071828;28;20434;-60
2021/11/14 07:30:29;;;;;;;8.07;6.20;;;8.90;99.90;;;;;;5071371;28;20463;-58
2021/11/14 07:32:56;;;;;;;9.32;6.10;;;8.90;99.90;;;;;;5072326;28;20502;-59
2021/11/14 07:35:25;;;;;;;9.18;6.30;;;9.00;99.90;;;;;;5073294;28;20474;-59
2021/11/14 07:37:52;;;;;;;8.00;5.03;;;9.10;99.90;;;;;;5073282;28;20452;-59
2021/11/14 07:40:22;;;;;;;7.40;5.75;;;9.20;99.90;;;;;;5073417;28;20519;-61
2021/11/14 07:42:49;;;;;;;7.65;6.03;;;9.40;99.90;;;;;;5072847;28;20424;-58
2021/11/14 07:45:20;;;;;;;8.80;6.30;;;9.30;99.90;;;;;;5073240;28;20467;-57
2021/11/14 07:47:49;;;;;;;8.50;6.20;;;9.30;99.90;;;;;;5072764;28;20428;-57
2021/11/14 07:50:17;;;;;;;6.63;5.82;;;9.20;99.90;;;;;;5073505;28;20428;-59
2021/11/14 07:52:45;;;;;;;7.60;5.85;;;9.20;99.90;;;;;;5072606;28;20424;-59
2021/11/14 07:55:13;;;;;;;9.48;5.90;;;9.20;99.90;;;;;;5072387;28;20431;-57
2021/11/14 07:57:44;;;;;;;8.23;5.40;;;9.20;99.90;;;;;;5072552;28;20486;-59
2021/11/14 08:00:13;;;;;;;8.35;6.72;;;9.10;99.90;;;;;;5072988;28;20427;-59
2021/11/14 08:02:39;;;;;;;9.52;6.20;;;9.10;99.90;;;;;;5072579;28;20465;-58
2021/11/14 08:05:10;;;;;;;9.45;7.18;;;9.10;99.90;;;;;;5072583;28;20886;-57
2021/11/14 08:07:37;;;;;;;8.52;6.75;;;9.20;99.90;;;;;;5071851;28;20749;-59
2021/11/14 08:10:09;;;;;;;9.18;5.32;;;9.30;99.90;;;;;;5072410;28;20842;-59
2021/11/14 08:12:36;;;;;;;7.57;5.90;;;9.30;99.90;;;;;;5071551;28;20424;-57
2021/11/14 08:15:05;;;;;;;7.95;5.03;;;9.40;99.90;;;;;;5071632;28;20440;-58
2021/11/14 08:17:32;;;;;;;7.10;5.32;;;9.50;99.90;;;;;;5070741;28;20440;-59
2021/11/14 08:20:00;;;;;;;6.82;5.80;;;9.60;99.90;;;;;;5071460;27;20494;-59
2021/11/14 08:22:29;;;;;;;8.10;5.80;;;9.50;99.90;;;;;;5071763;28;20480;-58
2021/11/14 08:24:56;;;;;;;7.40;4.82;;;9.60;99.90;;;;;;5069750;28;20907;-56
2021/11/14 08:27:23;;;;;;;8.05;6.35;;;9.60;99.90;;;;;;5071171;28;20431;-58
2021/11/14 08:29:51;;;;;;;6.90;5.40;;;9.50;99.90;;;;;;5071221;28;20427;-58
2021/11/14 08:32:18;;;;;;;7.80;5.45;;;9.70;99.90;;;;;;5071503;28;20412;-59
2021/11/14 08:34:45;;;;;;;7.45;4.45;;;9.80;99.90;;;;;;5071855;28;20482;-59
2021/11/14 08:37:12;;;;;;;7.53;5.47;;;10.00;99.90;;;;;;5071414;28;20427;-59
2021/11/14 08:39:41;;;;;;;6.82;5.50;;;10.00;99.90;;;;;;5071167;28;20427;-58
2021/11/14 08:42:09;;;;;;;6.63;5.05;;;10.00;99.90;;;;;;5071026;28;20459;-57
2021/11/14 08:44:37;;;;;;;8.07;5.53;;;10.00;99.90;;;;;;5069087;28;20439;-58
2021/11/14 08:47:05;;;;;;;7.00;5.80;;;9.90;99.90;;;;;;5070026;28;20899;-57
2021/11/14 08:49:32;;;;;;;6.57;5.20;;;9.80;99.90;;;;;;5070687;28;20463;-57
2021/11/14 08:52:00;;;;;;;7.72;4.90;;;9.80;99.90;;;;;;5070053;28;20518;-57
2021/11/14 08:54:27;;;;;;;6.80;5.30;;;9.70;99.90;;;;;;5069495;28;20467;-58
2021/11/14 08:56:55;;;;;;;6.43;5.03;;;9.80;99.90;;;;;;5069898;28;20839;-58
2021/11/14 08:59:22;;;;;;;7.28;5.05;;;9.90;99.90;;;;;;5070184;28;20462;-58
2021/11/14 09:01:50;;;;;;;7.60;5.00;;;9.80;99.90;;;;;;5069606;27;20933;-57
2021/11/14 09:04:17;;;;;;;6.55;5.00;;;10.00;99.90;;;;;;5070867;28;20460;-58
2021/11/14 09:06:44;;;;;;;6.05;4.78;;;10.10;99.90;;;;;;5071606;28;20444;-58
2021/11/14 09:09:13;;;;;;;7.18;4.88;;;10.10;99.90;;;;;;5071202;28;20469;-57
2021/11/14 09:11:41;;;;;;;7.95;4.75;;;10.30;99.90;;;;;;5070539;28;20443;-58
2021/11/14 09:14:10;;;;;;;5.90;4.82;;;10.40;99.90;;;;;;5071090;28;20522;-58
2021/11/14 09:16:37;;;;;;;5.40;4.70;;;10.50;99.90;;;;;;5070380;28;20447;-60
2021/11/14 09:19:07;;;;;;;7.82;5.55;;;10.50;99.90;;;;;;5070205;28;20795;-58
2021/11/14 09:21:35;;;;;;;7.00;5.30;;;10.50;99.90;;;;;;5070782;28;20922;-57
2021/11/14 09:24:02;;;;;;;7.70;5.28;;;10.40;99.90;;;;;;5070126;28;20466;-58
2021/11/14 09:26:29;;;;;;;6.47;5.00;;;10.20;99.90;;;;;;5069404;28;20426;-58
2021/11/14 09:28:56;;;;;;;7.22;5.35;;;10.10;99.90;;;;;;5070086;28;20519;-58
2021/11/14 09:31:24;;;;;;;6.63;5.05;;;10.10;99.90;;;;;;5070323;28;20498;-58
2021/11/14 09:33:54;;;;;;;5.65;4.70;;;10.10;99.90;;;;;;5069343;27;20480;-58
2021/11/14 09:36:21;;;;;;;6.40;4.80;;;10.30;99.90;;;;;;5072139;27;20475;-58
2021/11/14 09:38:48;;;;;;;7.35;5.25;;;10.30;99.90;;;;;;5073557;28;20459;-57
2021/11/14 09:41:16;;;;;;;7.30;5.00;;;10.10;99.90;;;;;;5074361;28;20415;-57
2021/11/14 09:43:43;;;;;;;7.20;5.70;;;10.20;99.90;;;;;;5072503;28;20439;-59
2021/11/14 09:46:10;;;;;;;6.50;4.60;;;10.20;99.90;;;;;;5071895;28;20545;-58
2021/11/14 09:48:38;;;;;;;6.95;5.28;;;10.20;99.90;;;;;;5071084;28;20696;-57
2021/11/14 09:51:05;;;;;;;5.90;4.05;;;10.30;99.90;;;;;;5071784;28;20445;-59
2021/11/14 09:53:37;;;;;;;5.93;4.72;;;10.30;99.90;;;;;;5071554;28;20420;-59
2021/11/14 09:56:07;;;;;;;6.03;4.90;;;10.30;99.90;;;;;;5071452;28;20408;-59
2021/11/14 09:58:35;;;;;;;6.47;5.00;;;10.40;99.90;;;;;;5071385;27;20446;-59
2021/11/14 10:01:02;;;;;;;6.72;5.20;;;10.40;99.90;;;;;;5071046;28;20420;-58
2021/11/14 10:03:29;;;;;;;6.80;4.90;;;10.40;99.90;;;;;;5071796;27;20527;-58
2021/11/14 10:05:57;;;;;;;6.57;5.17;;;10.40;99.90;;;;;;5072040;28;20798;-59
2021/11/14 10:08:25;;;;;;;6.22;4.75;;;10.30;99.90;;;;;;5071158;28;20451;-59
2021/11/14 10:10:54;;;;;;;6.75;5.20;;;10.10;99.90;;;;;;5071968;27;20468;-59
2021/11/14 10:13:22;;;;;;;7.68;6.07;;;10.00;99.90;;;;;;5073088;28;20474;-58
2021/11/14 10:15:51;;;;;;;6.25;5.15;;;9.90;99.90;;;;;;5073220;28;20518;-59
2021/11/14 10:18:20;;;;;;;6.50;4.78;;;9.90;99.90;;;;;;5073413;28;20427;-54
2021/11/14 10:20:51;;;;;;;8.73;5.75;;;10.00;99.90;;;;;;5073180;28;20860;-56
2021/11/14 10:23:20;;;;;;;7.88;6.32;;;10.10;99.90;;;;;;5071136;28;20766;-57
2021/11/14 10:25:49;;;;;;;6.80;4.90;;;10.30;99.90;;;;;;5070805;27;20506;-56
2021/11/14 10:28:17;;;;;;;5.65;4.75;;;10.40;99.90;;;;;;5071316;27;20923;-58
2021/11/14 10:30:46;;;;;;;6.25;4.30;;;10.60;99.90;;;;;;5069641;27;20420;-58
2021/11/14 10:33:15;;;;;;;6.10;4.82;;;10.70;99.90;;;;;;5067695;28;20420;-59
2021/11/14 10:35:47;;;;;;;7.05;5.10;;;10.70;99.90;;;;;;5068336;28;20432;-58
2021/11/14 10:38:17;;;;;;;7.35;5.80;;;10.70;99.90;;;;;;5070868;27;20881;-58
2021/11/14 10:40:48;;;;;;;6.80;5.43;;;10.60;99.90;;;;;;5069874;27;20438;-58
2021/11/14 10:43:17;;;;;;;7.50;5.30;;;10.50;99.90;;;;;;5070801;27;20866;-59
2021/11/14 10:45:44;;;;;;;6.63;4.90;;;10.50;99.90;;;;;;5071412;28;20426;-59
2021/11/14 10:48:19;;;;;;;7.50;5.63;;;10.50;99.90;;;;;;5069792;27;20583;-58
2021/11/14 10:50:50;;;;;;;7.43;4.97;;;10.40;99.90;;;;;;5070886;28;20428;-59
2021/11/14 10:53:19;;;;;;;7.30;4.78;;;10.50;99.90;;;;;;5071475;27;20468;-57
2021/11/14 10:55:49;;;;;;;8.52;5.07;;;10.50;99.90;;;;;;5073018;28;20439;-59
2021/11/14 10:58:17;;;;;;;8.55;5.97;;;10.60;99.90;;;;;;5069990;28;20419;-59
2021/11/14 11:00:46;;;;;;;7.68;5.50;;;10.60;99.90;;;;;;5067876;28;20498;-59
2021/11/14 11:03:13;;;;;;;7.28;5.68;;;10.60;99.90;;;;;;5067433;27;20800;-59
2021/11/14 11:05:41;;;;;;;6.80;4.90;;;10.70;99.90;;;;;;5111272;27;20419;-59
2021/11/14 11:08:11;;;;;;;6.97;4.97;;;10.70;99.90;;;;;;5105670;27;20441;-59
2021/11/14 11:10:40;;;;;;;9.05;5.60;;;10.60;99.90;;;;;;5094882;27;20527;-59
2021/11/14 11:13:11;;;;;;;7.70;5.40;;;10.50;99.90;;;;;;5064557;28;20515;-59
2021/11/14 11:15:40;;;;;;;7.70;5.88;;;10.60;99.90;;;;;;5067096;28;20543;-59
2021/11/14 11:18:09;;;;;;;7.85;5.00;;;10.60;99.90;;;;;;5067337;27;20514;-59
2021/11/14 11:20:36;;;;;;;6.80;5.10;;;10.70;99.90;;;;;;5069662;28;20476;-59
2021/11/14 11:23:07;;;;;;;10.88;6.05;;;10.70;99.90;;;;;;5069201;28;20424;-58
2021/11/14 11:25:39;;;;;;;8.23;5.80;;;10.80;99.90;;;;;;5069451;27;20453;-59
2021/11/14 11:28:09;;;;;;;8.60;5.65;;;10.80;99.90;;;;;;5070159;28;21039;-58
2021/11/14 11:30:39;;;;;;;9.57;5.45;;;10.70;99.90;;;;;;5066932;28;20471;-58
2021/11/14 11:33:06;;;;;;;7.95;5.20;;;10.80;99.90;;;;;;5067158;28;20448;-58
2021/11/14 11:35:34;;;;;;;9.10;4.67;;;10.90;99.90;;;;;;5066938;28;20436;-57
2021/11/14 11:38:03;;;;;;;7.55;4.57;;;11.10;99.90;;;;;;5068362;28;20452;-58
2021/11/14 11:40:30;;;;;;;7.10;4.63;;;11.20;99.90;;;;;;5065679;28;20423;-58
2021/11/14 11:42:57;;;;;;;8.02;5.85;;;11.00;99.90;;;;;;5066206;27;20523;-59
2021/11/14 11:45:31;;;;;;;7.32;5.35;;;10.80;99.90;;;;;;5072022;28;20451;-58
2021/11/14 11:48:00;;;;;;;7.85;4.95;;;10.80;99.90;;;;;;5065362;28;20420;-58
2021/11/14 11:50:31;;;;;;;8.10;4.65;;;10.80;99.90;;;;;;5066952;28;20535;-58
2021/11/14 11:52:58;;;;;;;7.43;4.85;;;10.90;99.90;;;;;;5070173;28;20428;-58
2021/11/14 11:55:29;;;;;;;7.88;5.50;;;10.90;99.90;;;;;;5071449;27;20565;-59
2021/11/14 11:58:10;;;;;;;7.28;4.88;;;11.00;99.90;;;;;;5071450;28;20525;-59
2021/11/14 12:00:53;;;;;;;5.85;4.90;;;11.00;99.90;;;;;;5064379;28;20522;-59
2021/11/14 12:03:28;;;;;;;9.63;5.57;;;11.00;99.90;;;;;;5069341;28;20484;-59
2021/11/14 12:05:55;;;;;;;7.72;5.68;;;10.90;99.90;;;;;;5068464;28;20810;-59
2021/11/14 12:08:33;;;;;;;7.13;5.13;;;10.90;99.90;;;;;;5067970;28;20704;-58
2021/11/14 12:11:00;;;;;;;7.60;5.35;;;11.00;99.90;;;;;;5068372;28;20880;-60
2021/11/14 12:13:29;;;;;;;5.85;4.25;;;11.20;99.90;;;;;;5097216;27;20467;-59
2021/11/14 12:16:00;;;;;;;6.20;4.85;;;11.30;99.90;;;;;;5106358;27;20870;-59
2021/11/14 12:18:41;;;;;;;6.75;5.20;;;11.20;99.90;;;;;;5097725;27;20739;-59
2021/11/14 12:21:21;;;;;;;6.80;5.00;;;11.20;99.90;;;;;;5067016;28;20420;-60
2021/11/14 12:23:54;;;;;;;7.53;5.13;;;11.30;99.90;;;;;;5067217;28;20435;-59
2021/11/14 12:26:32;;;;;;;7.95;5.70;;;11.40;99.90;;;;;;5067969;28;20453;-59
2021/11/14 12:29:04;;;;;;;7.03;4.70;;;11.40;99.90;;;;;;5066110;28;20430;-60
2021/11/14 12:31:35;;;;;;;8.53;5.10;;;11.60;99.90;;;;;;5067537;28;20479;-59
2021/11/14 12:34:10;;;;;;;7.00;4.60;;;11.80;99.90;;;;;;5066292;27;20451;-59
2021/11/14 12:36:40;;;;;;;7.78;4.85;;;11.60;99.90;;;;;;5068075;28;20492;-59
2021/11/14 12:39:14;;;;;;;7.05;4.15;;;11.40;99.90;;;;;;5068536;28;20872;-59
2021/11/14 12:41:50;;;;;;;7.50;4.55;;;11.40;99.90;;;;;;5065491;28;20424;-60
2021/11/14 12:44:27;;;;;;;7.80;3.65;;;11.40;99.90;;;;;;5063951;28;20454;-59
2021/11/14 12:46:55;;;;;;;6.70;3.72;;;11.50;99.90;;;;;;5066375;28;20428;-59
2021/11/14 12:49:22;;;;;;;6.47;3.60;;;11.40;99.90;;;;;;5067849;28;20555;-60
2021/11/14 12:51:53;;;;;;;7.18;3.88;;;11.30;99.90;;;;;;5068998;28;20878;-59
2021/11/14 12:54:21;;;;;;;7.28;4.70;;;11.20;99.90;;;;;;5070086;28;20460;-59
2021/11/14 12:56:52;;;;;;;7.70;4.05;;;11.20;99.90;;;;;;5071750;27;20619;-59
2021/11/14 12:59:24;;;;;;;8.57;4.72;;;11.10;99.90;;;;;;5070778;27;20533;-60